Time;durP1;ratioP1;P1;durP2;ratioP2;P2;SDS_P1;SDS_P2;PMS_P1;PMS_P2;Temp;Humidity;BMP_temperature;BMP_pressure;BME280_temperature;BME280_humidity;BME280_pressure;Samples;Min_cycle;Max_cycle;Signal;HPM_P1;HPM_P2
2023/10/07 00:01:37;;;;;;;5.70;2.90;;;;;;;8.00;76.84;99153.98;104877;1269;61572;-24
2023/10/07 00:04:05;;;;;;;8.00;4.00;;;;;;;7.83;77.23;99146.12;104774;1266;72229;-24
2023/10/07 00:06:37;;;;;;;8.50;4.10;;;;;;;7.66;77.98;99136.23;104813;1271;74164;-24
2023/10/07 00:09:10;;;;;;;8.50;3.40;;;;;;;7.40;78.92;99130.18;102644;1273;2900543;-24
2023/10/07 00:11:39;;;;;;;;;;;;;;;7.19;80.09;99127.60;104649;1266;61165;-24
2023/10/07 00:14:09;;;;;;;7.60;3.80;;;;;;;7.47;79.48;99120.05;104812;1264;61261;-24
2023/10/07 00:16:38;;;;;;;8.70;4.80;;;;;;;7.66;78.43;99107.90;104821;1271;70715;-23
2023/10/07 00:19:07;;;;;;;10.20;4.20;;;;;;;7.59;78.51;99105.23;104821;1264;74295;-23
2023/10/07 00:29:13;;;;;;;11.30;4.30;;;;;;;7.58;79.19;99108.24;102748;1290;600184;-23
2023/10/07 00:39:20;;;;;;;5.60;3.10;;;;;;;7.29;79.54;99089.13;102641;1291;600149;-22
2023/10/07 00:41:50;;;;;;;9.00;3.40;;;;;;;7.34;79.79;99083.42;104868;1269;61193;-23
2023/10/07 00:44:22;;;;;;;9.20;3.70;;;;;;;7.64;78.49;99079.63;104850;1272;61193;-24
2023/10/07 00:49:29;;;;;;;8.10;2.90;;;;;;;7.55;78.25;99074.73;108530;1265;74324;-22
2023/10/07 00:51:58;;;;;;;8.60;4.60;;;;;;;7.44;78.64;99078.06;106385;1263;2937727;-23
2023/10/07 00:57:10;;;;;;;9.00;3.60;;;;;;;7.52;79.21;99068.59;108629;1269;60027;-23
2023/10/07 00:59:43;;;;;;;6.70;3.40;;;;;;;7.91;77.18;99059.86;108731;1263;72721;-22
2023/10/07 01:02:23;;;;;;;5.70;3.10;;;;;;;7.83;77.14;99050.91;108767;1263;73072;-23
2023/10/07 01:04:51;;;;;;;6.70;3.20;;;;;;;7.63;77.87;99047.60;108744;1264;71512;-22
2023/10/07 01:07:19;;;;;;;4.30;2.30;;;;;;;7.48;78.51;99037.95;108636;1264;58806;-23
2023/10/07 01:12:42;;;;;;;8.10;2.90;;;;;;;7.56;78.66;99012.17;108663;1264;71853;-22
2023/10/07 01:17:47;;;;;;;9.30;3.50;;;;;;;7.79;77.17;99007.11;108610;1264;72918;-23
2023/10/07 01:20:15;;;;;;;12.60;3.20;;;;;;;7.64;77.80;98999.52;108792;1263;58860;-23
2023/10/07 01:23:03;;;;;;;6.20;3.10;;;;;;;7.58;77.95;99002.14;108671;1264;58842;-22
2023/10/07 01:25:31;;;;;;;6.40;2.60;;;;;;;7.37;79.14;99003.08;108664;1264;73029;-22
2023/10/07 01:28:02;;;;;;;8.80;3.50;;;;;;;7.70;78.32;98996.66;108677;1264;73607;-23
2023/10/07 01:30:31;;;;;;;8.10;3.20;;;;;;;7.88;77.19;98992.09;108679;1264;71510;-22
2023/10/07 01:33:04;;;;;;;7.80;3.40;;;;;;;7.82;77.14;98985.30;108871;1259;59160;-22
2023/10/07 01:35:32;;;;;;;5.60;3.10;;;;;;;7.67;77.72;98982.73;108917;1261;58743;-23
2023/10/07 01:38:06;;;;;;;6.70;3.10;;;;;;;7.50;78.66;98975.41;109016;1263;73464;-22
2023/10/07 01:40:53;;;;;;;6.90;2.90;;;;;;;7.45;79.18;98971.42;108913;1260;74322;-23
2023/10/07 01:43:24;;;;;;;6.20;3.00;;;;;;;7.88;77.64;98966.91;108903;1261;72653;-22
2023/10/07 01:45:52;;;;;;;7.30;3.60;;;;;;;8.12;76.64;98961.90;109004;1264;60045;-22
2023/10/07 01:48:20;;;;;;;7.70;2.70;;;;;;;8.04;76.64;98952.27;108902;1259;60030;-22
2023/10/07 01:50:50;;;;;;;7.00;2.80;;;;;;;7.91;77.23;98939.37;108963;1260;73019;-23
2023/10/07 01:53:18;;;;;;;9.30;3.10;;;;;;;7.87;77.39;98943.13;109060;1260;73334;-22
2023/10/07 01:55:46;;;;;;;7.00;2.90;;;;;;;7.81;77.90;98938.87;109075;1257;71433;-23
2023/10/07 01:58:14;;;;;;;6.80;3.30;;;;;;;8.23;76.87;98931.00;109074;1260;58790;-23
2023/10/07 02:00:51;;;;;;;8.10;3.40;;;;;;;8.41;75.64;98918.98;108968;1264;58774;-23
2023/10/07 02:03:23;;;;;;;6.60;3.70;;;;;;;8.46;75.30;98909.64;109042;1257;71750;-23
2023/10/07 02:05:52;;;;;;;7.50;3.40;;;;;;;8.32;75.77;98905.84;108980;1260;73404;-23
2023/10/07 02:08:23;;;;;;;5.40;2.50;;;;;;;8.17;76.45;98894.43;109042;1260;72667;-23
2023/10/07 02:10:58;;;;;;;6.40;2.80;;;;;;;8.04;77.26;98882.79;108974;1263;60113;-22
2023/10/07 02:13:28;;;;;;;7.30;3.10;;;;;;;8.35;76.82;98879.48;108945;1259;59917;-22
2023/10/07 02:15:55;;;;;;;8.40;3.10;;;;;;;8.70;75.37;98870.45;108988;1260;73300;-23
2023/10/07 02:18:27;;;;;;;4.10;2.50;;;;;;;8.72;74.98;98870.45;109080;1259;74336;-23
2023/10/07 02:21:07;;;;;;;10.00;3.30;;;;;;;8.63;75.31;98855.05;108995;1260;72654;-23
2023/10/07 02:23:43;;;;;;;5.00;3.00;;;;;;;8.59;75.69;98857.95;108979;1260;59009;-22
2023/10/07 02:26:21;;;;;;;7.40;2.20;;;;;;;8.55;75.70;98860.52;109093;1257;59007;-22
2023/10/07 02:28:51;;;;;;;9.30;3.40;;;;;;;8.68;75.90;98858.52;109043;1260;73001;-23
2023/10/07 02:31:20;;;;;;;7.40;3.10;;;;;;;9.08;74.35;98855.40;109015;1259;74328;-23
2023/10/07 02:33:52;;;;;;;10.10;3.40;;;;;;;9.14;73.90;98846.00;108867;1260;72735;-23
2023/10/07 02:36:32;;;;;;;8.30;3.20;;;;;;;9.16;73.57;98841.67;108915;1260;58783;-22
2023/10/07 02:39:04;;;;;;;12.70;3.70;;;;;;;8.95;74.23;98826.36;108787;1259;60017;-22
2023/10/07 02:41:32;;;;;;;12.30;3.50;;;;;;;8.74;75.10;98823.96;108941;1259;72286;-22
2023/10/07 02:44:09;;;;;;;10.00;3.50;;;;;;;8.61;75.80;98812.46;109020;1260;74592;-22
2023/10/07 02:46:38;;;;;;;6.60;3.30;;;;;;;8.86;75.23;98808.45;108901;1259;72692;-22
2023/10/07 02:49:06;;;;;;;6.60;2.90;;;;;;;9.17;73.84;98798.31;108989;1260;58867;-22
2023/10/07 02:51:34;;;;;;;7.20;3.20;;;;;;;9.14;73.70;98797.98;108946;1260;58821;-22
2023/10/07 02:54:15;;;;;;;8.30;3.50;;;;;;;9.09;73.70;98797.88;108971;1259;72153;-22
2023/10/07 02:56:43;;;;;;;7.50;3.10;;;;;;;9.02;73.75;98796.98;108949;1259;74308;-23
2023/10/07 02:59:28;;;;;;;9.00;3.70;;;;;;;8.90;74.31;98787.79;108962;1263;72729;-22
2023/10/07 03:04:43;;;;;;;8.70;4.00;;;;;;;9.23;73.62;98773.20;108927;1260;58775;-22
2023/10/07 03:07:14;;;;;;;7.10;3.30;;;;;;;9.48;72.38;98770.86;108871;1260;73010;-22
2023/10/07 03:10:04;;;;;;;5.80;2.80;;;;;;;9.35;72.39;98771.95;108974;1260;74325;-22
2023/10/07 03:12:36;;;;;;;7.30;3.40;;;;;;;9.28;72.69;98759.69;108927;1260;72643;-22
2023/10/07 03:15:20;;;;;;;3.60;2.70;;;;;;;9.05;73.47;98752.33;108934;1260;60063;-23
2023/10/07 03:17:51;;;;;;;7.00;3.40;;;;;;;8.85;74.36;98742.63;108916;1259;60014;-22
2023/10/07 03:28:36;;;;;;;9.40;3.50;;;;;;;9.49;71.93;98720.89;108960;1260;60027;-22
2023/10/07 03:31:12;;;;;;;12.10;4.10;;;;;;;9.54;71.82;98735.38;108981;1260;58890;-23
2023/10/07 03:33:44;;;;;;;7.90;2.90;;;;;;;9.44;72.21;98720.61;108982;1260;73051;-22
2023/10/07 03:36:31;;;;;;;7.60;3.40;;;;;;;9.32;72.63;98717.73;108910;1260;73231;-22
2023/10/07 03:39:20;;;;;;;4.00;2.20;;;;;;;9.26;72.77;98708.38;108935;1259;71483;-22
2023/10/07 03:41:52;;;;;;;4.80;2.40;;;;;;;9.48;72.66;98707.42;109012;1260;60052;-22
2023/10/07 03:44:20;;;;;;;6.40;2.50;;;;;;;9.73;71.57;98694.84;108908;1260;58746;-23
2023/10/07 03:46:49;;;;;;;11.90;2.80;;;;;;;9.93;70.67;98686.25;108908;1260;73060;-22
2023/10/07 03:49:21;;;;;;;5.70;2.80;;;;;;;9.90;70.68;98684.71;108916;1260;73206;-22
2023/10/07 03:51:59;;;;;;;5.00;2.60;;;;;;;9.75;71.09;98673.51;109014;1259;71421;-23
2023/10/07 03:54:30;;;;;;;8.10;3.60;;;;;;;9.54;71.66;98670.41;108974;1259;58796;-22
2023/10/07 03:56:59;;;;;;;4.80;2.70;;;;;;;9.57;71.57;98662.55;109030;1259;58880;-22
2023/10/07 03:59:31;;;;;;;9.10;2.30;;;;;;;9.52;71.80;98670.77;109032;1260;72995;-22
2023/10/07 04:02:12;;;;;;;7.30;2.70;;;;;;;9.66;71.58;98663.50;108935;1259;73062;-22
2023/10/07 04:04:41;;;;;;;7.70;2.70;;;;;;;10.07;69.86;98658.31;108961;1259;71419;-23
2023/10/07 04:07:12;;;;;;;7.60;2.40;;;;;;;10.19;69.22;98650.75;108965;1260;58849;-22
2023/10/07 04:09:42;;;;;;;7.60;3.10;;;;;;;10.18;68.99;98648.52;108928;1259;60015;-22
2023/10/07 04:12:14;;;;;;;6.50;2.50;;;;;;;10.12;69.02;98647.00;108975;1259;71840;-22
2023/10/07 04:14:42;;;;;;;6.80;2.50;;;;;;;10.03;69.42;98635.47;108921;1259;74141;-23
2023/10/07 04:17:13;;;;;;;5.90;2.50;;;;;;;10.03;69.34;98640.31;109064;1260;71349;-22
2023/10/07 04:19:42;;;;;;;5.30;2.30;;;;;;;9.96;69.49;98637.77;108912;1259;60089;-22
2023/10/07 04:22:10;;;;;;;4.20;2.10;;;;;;;9.99;69.53;98639.75;108938;1259;60006;-22
2023/10/07 04:24:43;;;;;;;5.90;2.20;;;;;;;9.99;69.63;98635.59;108962;1260;73029;-22
2023/10/07 04:27:19;;;;;;;4.00;1.90;;;;;;;10.31;68.88;98630.66;108929;1260;72538;-23
2023/10/07 04:29:52;;;;;;;8.70;2.40;;;;;;;10.72;67.40;98627.96;108860;1260;71424;-23
2023/10/07 04:32:23;;;;;;;5.80;2.20;;;;;;;10.71;67.08;98618.31;108919;1261;58882;-22
2023/10/07 04:35:16;;;;;;;4.70;3.00;;;;;;;10.68;67.14;98624.35;108998;1259;58815;-22
2023/10/07 04:37:59;;;;;;;3.80;1.70;;;;;;;10.50;68.69;98626.79;109000;1259;72994;-22
2023/10/07 04:40:53;;;;;;;5.20;2.60;;;;;;;10.36;69.94;98623.95;108969;1260;73041;-22
2023/10/07 04:43:36;;;;;;;6.80;2.60;;;;;;;10.26;70.76;98624.10;108904;1259;72687;-22
2023/10/07 04:46:21;;;;;;;3.10;1.60;;;;;;;10.04;72.45;98619.10;109013;1259;61722;-22
2023/10/07 04:48:56;;;;;;;11.50;2.40;;;;;;;10.48;72.08;98610.41;108977;1260;58825;-23
2023/10/07 04:54:01;;;;;;;7.80;2.70;;;;;;;10.59;72.14;98601.01;109026;1260;73240;-22
2023/10/07 04:56:32;;;;;;;4.60;2.50;;;;;;;10.34;73.35;98597.59;109019;1258;71603;-22
2023/10/07 04:59:06;;;;;;;6.40;2.30;;;;;;;10.16;74.91;98603.80;109010;1259;60030;-23
2023/10/07 05:01:34;;;;;;;4.70;2.20;;;;;;;10.19;74.70;98602.13;109032;1259;60136;-22
2023/10/07 05:04:09;;;;;;;4.80;2.30;;;;;;;10.58;74.21;98591.14;109039;1259;73844;-23
2023/10/07 05:06:38;;;;;;;4.60;1.90;;;;;;;10.65;73.91;98589.54;108841;1260;74260;-22
2023/10/07 05:09:09;;;;;;;8.20;2.60;;;;;;;10.50;74.22;98584.45;109036;1260;71338;-22
2023/10/07 05:11:41;;;;;;;6.10;2.50;;;;;;;10.49;74.34;98594.89;108908;1262;58831;-22
2023/10/07 05:14:15;;;;;;;4.10;2.40;;;;;;;10.24;75.41;98597.35;108895;1259;59185;-23
2023/10/07 05:16:46;;;;;;;5.40;2.20;;;;;;;10.06;76.77;98593.20;108924;1260;72838;-23
2023/10/07 05:19:27;;;;;;;5.60;1.80;;;;;;;10.35;76.58;98590.17;108940;1260;72266;-23
2023/10/07 05:22:05;;;;;;;4.80;2.40;;;;;;;10.49;76.14;98588.50;108894;1261;72654;-22
2023/10/07 05:24:33;;;;;;;8.00;3.20;;;;;;;10.35;76.72;98580.34;108904;1259;59311;-22
2023/10/07 05:27:01;;;;;;;8.80;3.30;;;;;;;10.30;77.21;98569.30;109056;1259;60033;-22
2023/10/07 05:29:29;;;;;;;4.50;2.00;;;;;;;10.15;77.85;98564.29;108992;1259;73002;-23
2023/10/07 05:31:57;;;;;;;4.20;2.40;;;;;;;9.89;80.45;98558.10;109018;1259;73047;-23
2023/10/07 05:34:33;;;;;;;3.90;2.40;;;;;;;10.14;79.97;98555.72;108961;1259;72779;-23
2023/10/07 05:37:11;;;;;;;9.00;2.40;;;;;;;10.18;79.98;98558.55;108994;1259;60078;-23
2023/10/07 05:39:41;;;;;;;5.80;2.70;;;;;;;10.08;80.42;98560.43;108933;1260;60019;-23
2023/10/07 05:42:11;;;;;;;3.90;2.00;;;;;;;9.99;81.17;98557.58;109033;1260;73849;-23
2023/10/07 05:44:40;;;;;;;2.50;1.50;;;;;;;10.00;81.81;98554.36;109015;1259;74316;-23
2023/10/07 05:47:09;;;;;;;8.60;3.30;;;;;;;10.18;81.42;98552.63;108972;1259;70721;-23
2023/10/07 05:49:38;;;;;;;7.70;3.00;;;;;;;10.28;80.90;98555.20;108939;1259;58845;-23
2023/10/07 05:52:06;;;;;;;4.00;2.80;;;;;;;10.13;81.41;98555.99;108872;1260;60118;-22
2023/10/07 05:54:34;;;;;;;6.10;2.70;;;;;;;9.92;82.87;98555.73;108969;1259;73881;-21
2023/10/07 05:57:05;;;;;;;5.20;2.30;;;;;;;9.94;82.89;98549.64;109017;1259;74343;-22
2023/10/07 05:59:33;;;;;;;3.60;1.70;;;;;;;10.14;82.17;98551.61;108937;1259;72717;-22
2023/10/07 06:02:05;;;;;;;8.30;3.10;;;;;;;10.33;81.33;98557.40;108986;1259;60317;-22
2023/10/07 06:04:35;;;;;;;7.90;2.90;;;;;;;10.31;81.11;98558.44;108948;1259;58795;-22
2023/10/07 06:07:06;;;;;;;4.50;2.50;;;;;;;9.97;82.95;98549.27;108838;1260;73890;-21
2023/10/07 06:09:36;;;;;;;3.80;1.70;;;;;;;10.05;83.20;98545.80;108958;1260;74393;-21
2023/10/07 06:12:07;;;;;;;7.30;2.10;;;;;;;10.39;81.85;98542.70;108943;1260;71483;-22
2023/10/07 06:14:35;;;;;;;6.60;2.80;;;;;;;10.40;81.73;98531.99;108912;1260;58800;-24
2023/10/07 06:17:06;;;;;;;3.90;2.10;;;;;;;9.97;83.95;98526.66;109041;1260;60004;-25
2023/10/07 06:19:34;;;;;;;9.60;2.30;;;;;;;9.93;84.91;98517.54;108858;1260;72894;-22
2023/10/07 06:22:12;;;;;;;4.80;2.50;;;;;;;10.08;84.50;98513.98;108957;1260;74290;-23
2023/10/07 06:24:40;;;;;;;8.80;2.80;;;;;;;10.27;83.70;98496.33;108938;1260;71409;-21
2023/10/07 06:27:11;;;;;;;5.60;2.60;;;;;;;9.96;84.93;98485.88;108956;1259;58959;-20
2023/10/07 06:29:43;;;;;;;5.20;2.40;;;;;;;10.03;85.51;98489.05;109015;1259;59999;-20
2023/10/07 06:32:22;;;;;;;9.30;2.60;;;;;;;10.43;84.60;98478.26;108990;1260;73925;-21
2023/10/07 06:34:51;;;;;;;4.70;2.90;;;;;;;10.53;83.49;98467.83;109020;1259;73015;-20
2023/10/07 06:37:28;;;;;;;4.50;2.30;;;;;;;10.51;83.94;98467.34;108960;1260;72603;-20
2023/10/07 06:40:00;;;;;;;7.10;2.30;;;;;;;10.27;85.20;98458.50;108941;1260;58799;-20
2023/10/07 06:42:28;;;;;;;4.20;2.60;;;;;;;10.54;84.53;98456.83;108915;1260;59512;-20
2023/10/07 06:45:02;;;;;;;5.50;2.90;;;;;;;10.92;82.51;98443.14;109039;1260;73856;-20
2023/10/07 06:47:32;;;;;;;5.80;2.70;;;;;;;11.14;81.13;98443.39;108959;1260;73606;-20
2023/10/07 06:50:03;;;;;;;5.30;2.70;;;;;;;10.82;81.29;98428.92;108925;1260;72668;-20
2023/10/07 06:52:32;;;;;;;4.70;2.50;;;;;;;10.77;82.33;98433.41;108926;1260;58843;-20
2023/10/07 06:55:02;;;;;;;5.70;2.70;;;;;;;10.84;82.08;98429.98;108924;1260;58824;-21
2023/10/07 06:57:41;;;;;;;3.10;2.20;;;;;;;11.44;80.39;98430.20;108926;1260;73844;-21
2023/10/07 07:00:22;;;;;;;7.50;2.30;;;;;;;11.43;78.83;98423.14;109033;1260;73228;-21
2023/10/07 07:02:59;;;;;;;6.10;2.90;;;;;;;11.25;80.19;98420.47;108957;1260;72656;-21
2023/10/07 07:05:33;;;;;;;2.60;1.70;;;;;;;11.13;81.25;98415.54;108816;1263;58809;-21
2023/10/07 07:08:04;;;;;;;6.30;2.70;;;;;;;11.35;80.57;98416.61;108822;1262;58815;-21
2023/10/07 07:10:34;;;;;;;5.20;2.40;;;;;;;11.52;78.90;98402.84;108840;1262;73872;-22
2023/10/07 07:13:12;;;;;;;4.10;2.20;;;;;;;11.58;78.29;98399.45;108873;1262;74466;-21
2023/10/07 07:15:43;;;;;;;3.80;2.50;;;;;;;11.44;78.59;98384.09;108817;1262;71185;-22
2023/10/07 07:23:43;;;;;;;5.10;2.20;;;;;;;11.83;76.84;98381.75;108739;1262;73841;-23
2023/10/07 07:26:18;;;;;;;5.60;2.60;;;;;;;11.95;75.86;98385.45;108806;1263;73225;-23
2023/10/07 07:28:54;;;;;;;7.00;2.50;;;;;;;12.17;74.83;98377.83;108773;1263;71378;-24
2023/10/07 07:31:34;;;;;;;7.10;2.70;;;;;;;12.12;74.71;98374.64;108885;1260;58795;-24
2023/10/07 07:34:20;;;;;;;3.00;1.40;;;;;;;12.05;74.74;98372.91;108844;1262;60047;-24
2023/10/07 07:37:01;;;;;;;4.50;2.30;;;;;;;12.38;73.66;98366.73;108787;1262;73822;-24
2023/10/07 07:39:31;;;;;;;3.20;1.70;;;;;;;12.79;72.00;98357.20;108884;1261;74670;-24
2023/10/07 07:42:22;;;;;;;7.00;2.50;;;;;;;12.86;70.43;98335.73;108797;1261;72702;-24
2023/10/07 07:44:57;;;;;;;4.40;2.30;;;;;;;12.98;70.18;98337.55;108796;1261;60026;-24
2023/10/07 07:47:31;;;;;;;7.30;2.10;;;;;;;13.04;69.95;98337.95;108886;1261;60011;-24
2023/10/07 07:50:01;;;;;;;5.20;2.20;;;;;;;13.09;69.56;98327.35;108868;1262;73968;-24
2023/10/07 07:52:32;;;;;;;4.10;2.50;;;;;;;13.09;69.23;98322.61;108824;1261;74386;-24
2023/10/07 07:55:05;;;;;;;3.70;1.90;;;;;;;13.16;68.32;98313.20;108804;1263;71764;-24
2023/10/07 07:57:35;;;;;;;5.20;2.20;;;;;;;13.17;68.47;98308.08;108811;1261;58865;-24
2023/10/07 08:00:09;;;;;;;5.80;2.20;;;;;;;13.28;68.16;98298.87;108848;1261;59997;-24
2023/10/07 08:02:41;;;;;;;4.40;2.00;;;;;;;13.26;67.65;98290.37;108914;1262;73867;-24
2023/10/07 08:12:50;;;;;;;11.80;2.50;;;;;;;13.51;65.39;98257.48;102941;1288;599497;-22
2023/10/07 08:15:21;;;;;;;8.10;2.50;;;;;;;13.56;64.87;98262.90;105041;1269;61162;-22
2023/10/07 08:17:51;;;;;;;4.20;2.40;;;;;;;13.59;65.03;98264.38;105072;1269;61099;-22
2023/10/07 08:20:27;;;;;;;7.50;1.90;;;;;;;13.63;65.46;98268.11;104722;1273;70875;-24
2023/10/07 08:22:55;;;;;;;4.10;2.10;;;;;;;13.67;64.73;98267.33;104973;1267;74300;-21
2023/10/07 08:25:37;;;;;;;3.90;2.10;;;;;;;13.71;64.39;98270.31;102829;1263;3086208;-22
2023/10/07 08:35:47;;;;;;;5.70;2.40;;;;;;;14.11;62.82;98260.16;102599;1293;600096;-21
2023/10/07 08:38:38;;;;;;;5.80;1.60;;;;;;;14.21;62.55;98262.39;104826;1267;61145;-20
2023/10/07 08:48:49;;;;;;;10.30;2.30;;;;;;;14.66;60.66;98223.14;102631;1292;599503;-21
2023/10/07 08:51:22;;;;;;;3.50;1.70;;;;;;;14.71;59.99;98217.27;104842;1267;61122;-22
2023/10/07 08:54:05;;;;;;;3.40;1.30;;;;;;;14.84;59.69;98217.06;104864;1266;61052;-22
2023/10/07 08:56:35;;;;;;;3.50;1.70;;;;;;;14.98;59.43;98213.02;104881;1271;72185;-22
2023/10/07 08:59:07;;;;;;;5.20;1.60;;;;;;;15.07;59.17;98208.39;104837;1267;73078;-23
2023/10/07 09:09:37;;;;;;;5.30;1.50;;;;;;;15.33;57.78;98212.44;102768;1295;599881;-23
2023/10/07 09:12:18;;;;;;;2.10;1.30;;;;;;;15.46;57.16;98218.38;104811;1272;61254;-23
2023/10/07 09:17:23;;;;;;;5.20;1.30;;;;;;;15.77;56.76;98200.56;104845;1272;71917;-23
2023/10/07 09:19:53;;;;;;;9.40;2.40;;;;;;;15.80;56.41;98197.66;104831;1264;74284;-23
2023/10/07 09:22:34;;;;;;;3.20;1.60;;;;;;;15.82;56.56;98206.89;102733;1263;3035368;-23
2023/10/07 09:25:17;;;;;;;7.30;2.30;;;;;;;15.86;55.85;98205.33;105297;1261;61243;-23
2023/10/07 09:27:54;;;;;;;4.60;1.90;;;;;;;15.87;56.79;98213.69;105209;1267;61263;-23
2023/10/07 09:30:45;;;;;;;4.60;1.90;;;;;;;15.89;55.98;98200.43;105225;1261;72045;-23
2023/10/07 09:33:17;;;;;;;3.90;1.60;;;;;;;15.96;56.13;98200.52;105298;1260;73028;-23
2023/10/07 09:38:41;;;;;;;2.80;1.40;;;;;;;16.07;56.25;98191.42;105282;1259;61155;-23
2023/10/07 09:41:12;;;;;;;3.10;1.60;;;;;;;16.13;55.76;98175.11;105223;1260;61068;-23
2023/10/07 09:43:43;;;;;;;6.10;2.00;;;;;;;16.21;55.90;98187.90;105314;1260;73014;-22
2023/10/07 09:46:11;;;;;;;5.80;1.90;;;;;;;16.34;55.83;98176.85;105108;1261;74326;-23
2023/10/07 09:49:00;;;;;;;9.00;1.70;;;;;;;16.45;55.92;98158.28;105175;1264;71386;-23
2023/10/07 09:51:28;;;;;;;2.20;1.20;;;;;;;16.51;55.70;98164.24;105159;1260;61195;-23
2023/10/07 09:54:22;;;;;;;7.30;1.90;;;;;;;16.54;55.18;98153.52;105409;1263;61707;-24
2023/10/07 09:57:06;;;;;;;3.20;1.60;;;;;;;16.61;55.45;98158.01;105207;1260;73073;-23
2023/10/07 09:59:44;;;;;;;5.80;1.50;;;;;;;16.69;55.77;98164.47;105192;1266;74432;-23
2023/10/07 10:02:32;;;;;;;2.70;1.50;;;;;;;16.63;56.19;98148.88;105202;1260;72595;-23
2023/10/07 10:05:31;;;;;;;3.10;1.40;;;;;;;16.53;56.54;98155.41;104880;1260;61036;-21
2023/10/07 10:08:29;;;;;;;6.20;1.50;;;;;;;16.45;57.65;98153.05;105035;1265;61125;-22
2023/10/07 10:11:08;;;;;;;3.50;1.60;;;;;;;16.39;57.74;98161.67;105031;1266;72043;-22
2023/10/07 10:16:14;;;;;;;5.10;1.60;;;;;;;16.32;59.28;98154.21;105185;1259;71341;-22
2023/10/07 10:18:51;;;;;;;3.00;1.50;;;;;;;16.29;59.75;98154.59;105067;1267;61249;-22
2023/10/07 10:21:22;;;;;;;7.30;1.90;;;;;;;16.26;60.49;98169.01;104887;1268;61103;-22
2023/10/07 10:23:51;;;;;;;4.70;1.20;;;;;;;16.20;60.70;98161.49;104825;1259;72147;-22
2023/10/07 10:33:38;;;;;;;3.40;1.20;;;;;;;15.85;64.37;98157.88;103156;1286;600043;-21
2023/10/07 10:36:07;;;;;;;6.90;1.50;;;;;;;15.59;66.06;98137.73;105613;1254;61148;-24
2023/10/07 10:38:37;;;;;;;10.10;1.90;;;;;;;15.52;66.96;98142.23;105666;1254;61066;-22
2023/10/07 10:41:08;;;;;;;3.80;1.20;;;;;;;15.51;67.56;98145.48;105652;1260;72194;-21
2023/10/07 10:43:36;;;;;;;2.50;1.20;;;;;;;15.85;66.78;98146.52;105693;1254;74281;-22
2023/10/07 10:46:08;;;;;;;3.50;1.50;;;;;;;16.14;65.72;98149.71;104226;1254;3057046;-22
2023/10/07 10:48:38;;;;;;;2.60;1.20;;;;;;;16.25;65.44;98136.02;105685;1253;61160;-24
2023/10/07 10:51:07;;;;;;;1.70;1.10;;;;;;;16.14;65.88;98140.00;105660;1254;61145;-23
2023/10/07 10:53:36;;;;;;;6.80;1.80;;;;;;;15.96;66.00;98133.68;105727;1254;72210;-24
2023/10/07 11:03:48;;;;;;;5.70;1.80;;;;;;;15.92;66.30;98137.23;102625;1294;600529;-24
2023/10/07 11:06:19;;;;;;;3.10;1.50;;;;;;;15.95;66.01;98147.28;104762;1272;61261;-24
2023/10/07 11:08:47;;;;;;;9.70;2.20;;;;;;;15.98;65.40;98132.39;104748;1267;61158;-23
2023/10/07 11:11:14;;;;;;;5.60;1.50;;;;;;;16.08;64.66;98111.86;104665;1269;71083;-23
2023/10/07 11:13:44;;;;;;;3.70;2.10;;;;;;;16.06;64.57;98130.23;104851;1267;73180;-22
2023/10/07 11:16:13;;;;;;;5.40;2.00;;;;;;;16.04;63.87;98122.37;103241;1267;3175755;-23
2023/10/07 11:18:44;;;;;;;3.60;1.50;;;;;;;16.07;64.18;98137.30;104873;1267;61183;-23
2023/10/07 11:21:21;;;;;;;6.40;1.30;;;;;;;16.17;63.68;98118.95;105158;1266;61087;-22
2023/10/07 11:23:52;;;;;;;2.70;1.20;;;;;;;16.22;62.94;98109.64;104890;1269;72205;-25
2023/10/07 11:26:20;;;;;;;3.20;1.50;;;;;;;16.34;62.68;98098.50;104758;1265;73157;-24
2023/10/07 11:28:48;;;;;;;2.70;1.20;;;;;;;16.46;62.12;98089.40;105150;1263;72653;-24
2023/10/07 11:31:26;;;;;;;3.90;1.60;;;;;;;16.60;61.68;98101.05;105141;1267;61157;-23
2023/10/07 11:33:54;;;;;;;3.70;1.40;;;;;;;16.75;61.18;98101.80;104850;1272;61210;-23
2023/10/07 11:44:00;;;;;;;3.20;1.80;;;;;;;17.36;58.89;98094.05;102657;1289;600232;-21
2023/10/07 11:46:28;;;;;;;2.70;1.40;;;;;;;17.49;57.98;98085.23;104861;1270;61210;-21
2023/10/07 11:48:56;;;;;;;5.60;1.30;;;;;;;17.49;57.16;98079.69;108634;1264;60000;-23
2023/10/07 11:51:24;;;;;;;10.50;1.40;;;;;;;17.46;57.31;98077.52;108647;1264;71313;-23
2023/10/07 11:53:51;;;;;;;2.10;1.30;;;;;;;17.46;57.03;98087.04;108661;1264;74388;-22
2023/10/07 11:56:19;;;;;;;2.90;1.70;;;;;;;17.45;56.96;98058.72;108587;1263;71426;-22
2023/10/07 11:58:49;;;;;;;5.90;1.90;;;;;;;17.44;57.08;98078.31;106476;1262;3040091;-22
2023/10/07 12:01:20;;;;;;;2.30;1.30;;;;;;;17.50;57.02;98082.25;108782;1262;59617;-23
2023/10/07 12:03:48;;;;;;;5.70;1.90;;;;;;;17.58;56.90;98086.88;108778;1263;72374;-23
2023/10/07 12:06:17;;;;;;;5.50;1.20;;;;;;;17.56;56.53;98069.48;108621;1263;74313;-23
2023/10/07 12:08:45;;;;;;;3.60;1.50;;;;;;;17.53;56.67;98083.80;108602;1264;72761;-23
2023/10/07 12:11:12;;;;;;;4.50;1.40;;;;;;;17.56;56.80;98092.09;108670;1264;58899;-23
2023/10/07 12:13:40;;;;;;;6.50;2.20;;;;;;;17.58;56.26;98082.02;108746;1264;59998;-23
2023/10/07 12:16:09;;;;;;;2.20;1.30;;;;;;;17.60;56.10;98082.63;108624;1263;71848;-23
2023/10/07 12:18:37;;;;;;;3.40;1.90;;;;;;;17.65;56.29;98079.81;108698;1264;72566;-23
2023/10/07 12:21:11;;;;;;;10.70;1.50;;;;;;;17.62;56.16;98079.53;108671;1265;71444;-23
2023/10/07 12:23:43;;;;;;;6.90;1.60;;;;;;;17.58;55.89;98079.38;108682;1264;60045;-22
2023/10/07 12:26:12;;;;;;;5.60;1.60;;;;;;;17.57;56.09;98075.28;108729;1263;58955;-23
2023/10/07 12:28:44;;;;;;;5.50;1.60;;;;;;;17.52;55.86;98077.77;108724;1263;73057;-23
2023/10/07 12:31:12;;;;;;;6.30;2.10;;;;;;;17.46;55.79;98075.21;108613;1264;74325;-22
2023/10/07 12:33:40;;;;;;;2.60;1.70;;;;;;;17.48;56.03;98086.45;108745;1263;70935;-22
2023/10/07 12:36:12;;;;;;;3.50;2.00;;;;;;;17.53;55.85;98074.25;108628;1265;59294;-23
2023/10/07 12:38:41;;;;;;;11.70;1.70;;;;;;;17.55;55.97;98074.17;108679;1263;60026;-23
2023/10/07 12:41:09;;;;;;;6.30;2.20;;;;;;;17.61;55.64;98082.45;108725;1263;73060;-23
2023/10/07 12:43:37;;;;;;;9.20;2.20;;;;;;;17.65;55.52;98078.11;108615;1263;74323;-23
2023/10/07 12:46:09;;;;;;;5.60;1.60;;;;;;;17.72;55.33;98083.36;108667;1263;71423;-22
2023/10/07 12:48:40;;;;;;;4.30;1.70;;;;;;;17.64;55.35;98071.88;108766;1263;58772;-23
2023/10/07 12:51:08;;;;;;;5.00;1.50;;;;;;;17.55;55.26;98059.20;108742;1263;59983;-22
2023/10/07 12:53:36;;;;;;;4.50;1.50;;;;;;;17.48;55.56;98079.64;108704;1265;72669;-23
2023/10/07 12:56:17;;;;;;;3.30;1.50;;;;;;;17.40;55.82;98088.43;108692;1264;74352;-23
2023/10/07 12:58:46;;;;;;;5.40;1.70;;;;;;;17.31;56.30;98093.26;108702;1264;72697;-23
2023/10/07 13:01:15;;;;;;;4.70;1.30;;;;;;;17.26;56.13;98086.30;108633;1266;60443;-23
2023/10/07 13:03:43;;;;;;;5.70;1.60;;;;;;;17.19;56.33;98077.48;108621;1263;58744;-23
2023/10/07 13:06:14;;;;;;;2.40;1.80;;;;;;;17.19;56.23;98072.63;108655;1264;73075;-23
2023/10/07 13:08:43;;;;;;;3.30;1.80;;;;;;;17.18;56.23;98073.30;108498;1264;73089;-23
2023/10/07 13:11:13;;;;;;;6.10;2.00;;;;;;;17.17;56.26;98068.73;108588;1264;72955;-23
2023/10/07 13:13:45;;;;;;;13.90;2.20;;;;;;;17.18;56.04;98070.88;108594;1264;60100;-22
2023/10/07 13:16:13;;;;;;;2.80;1.60;;;;;;;17.16;56.41;98067.58;108634;1264;60106;-22
2023/10/07 13:18:42;;;;;;;4.30;1.60;;;;;;;17.09;56.58;98076.08;108641;1263;73076;-22
2023/10/07 13:21:18;;;;;;;4.30;2.00;;;;;;;17.12;56.76;98080.34;108642;1263;73229;-23
2023/10/07 13:23:47;;;;;;;3.90;1.90;;;;;;;17.11;56.79;98068.20;108599;1264;72675;-22
2023/10/07 13:26:16;;;;;;;8.50;2.00;;;;;;;17.12;56.94;98075.00;108612;1264;60083;-22
2023/10/07 13:28:48;;;;;;;5.20;2.00;;;;;;;17.09;57.06;98071.02;108625;1264;58817;-22
2023/10/07 13:31:17;;;;;;;5.80;1.80;;;;;;;17.11;56.96;98062.61;108700;1264;73016;-23
2023/10/07 13:33:46;;;;;;;5.50;2.10;;;;;;;17.13;57.08;98064.66;108633;1264;74323;-23
2023/10/07 13:36:14;;;;;;;5.90;2.10;;;;;;;17.15;57.11;98066.13;108585;1265;72689;-22
2023/10/07 13:38:42;;;;;;;4.70;1.80;;;;;;;17.15;57.13;98067.37;108607;1264;58812;-23